Time;durP1;ratioP1;P1;durP2;ratioP2;P2;SDS_P1;SDS_P2;PMS_P1;PMS_P2;Temp;Humidity;BMP_temperature;BMP_pressure;BME280_temperature;BME280_humidity;BME280_pressure;Samples;Min_cycle;Max_cycle;Signal;HPM_P1;HPM_P2
2020/12/24 00:02:19;;;;;;;103.43;44.20;;;1.80;99.90;;;;;;5235992;28;20277;-84
2020/12/24 00:04:51;;;;;;;104.87;44.73;;;1.70;99.90;;;;;;5233524;28;20221;-80
2020/12/24 00:07:22;;;;;;;92.30;41.73;;;1.80;99.90;;;;;;5235424;28;20197;-83
2020/12/24 00:09:54;;;;;;;88.40;40.90;;;1.80;99.90;;;;;;5230220;28;20194;-82
2020/12/24 00:12:25;;;;;;;79.60;38.53;;;1.80;99.90;;;;;;5230150;28;20198;-81
2020/12/24 00:14:57;;;;;;;88.07;37.97;;;1.80;99.90;;;;;;5229732;28;20240;-80
2020/12/24 00:17:28;;;;;;;85.77;38.53;;;1.80;99.90;;;;;;5212405;28;20198;-80
2020/12/24 00:20:00;;;;;;;76.70;35.57;;;1.80;99.90;;;;;;5229676;28;20659;-80
2020/12/24 00:22:32;;;;;;;78.87;36.03;;;1.80;99.90;;;;;;5230510;28;20200;-79
2020/12/24 00:25:03;;;;;;;73.10;36.07;;;1.80;99.90;;;;;;5229466;28;20209;-81
2020/12/24 00:27:35;;;;;;;72.67;35.57;;;1.70;99.90;;;;;;5229882;28;20200;-81
2020/12/24 00:30:06;;;;;;;73.90;35.47;;;1.70;99.90;;;;;;5234469;28;20190;-80
2020/12/24 00:32:38;;;;;;;76.33;35.23;;;1.70;99.90;;;;;;5229466;28;20198;-78
2020/12/24 00:35:09;;;;;;;75.63;36.20;;;1.60;99.90;;;;;;5213097;28;20582;-81
2020/12/24 00:37:41;;;;;;;72.87;35.60;;;1.60;99.90;;;;;;5230907;28;20536;-80
2020/12/24 00:40:12;;;;;;;73.87;35.00;;;1.60;99.90;;;;;;5230961;28;20193;-83
2020/12/24 00:42:44;;;;;;;68.67;33.70;;;1.60;99.90;;;;;;5230182;28;20199;-81
2020/12/24 00:45:15;;;;;;;72.97;36.70;;;1.60;99.90;;;;;;5230253;28;20213;-82
2020/12/24 00:47:48;;;;;;;74.73;36.80;;;1.60;99.90;;;;;;5229614;28;20193;-80
2020/12/24 00:50:19;;;;;;;74.77;35.10;;;1.60;99.90;;;;;;5231896;28;20190;-80
2020/12/24 00:52:51;;;;;;;73.67;34.57;;;1.60;99.90;;;;;;5234075;28;20196;-79
2020/12/24 00:55:23;;;;;;;70.00;35.73;;;1.50;99.90;;;;;;5234055;28;20194;-79
2020/12/24 00:57:54;;;;;;;73.97;34.53;;;1.50;99.90;;;;;;5233933;28;20525;-80
2020/12/24 01:00:26;;;;;;;71.83;33.00;;;1.50;99.90;;;;;;5232118;28;20197;-79
2020/12/24 01:02:57;;;;;;;71.17;35.10;;;1.60;99.90;;;;;;5231729;28;20193;-77
2020/12/24 01:05:31;;;;;;;69.63;33.93;;;1.60;99.90;;;;;;5213693;28;20213;-75
2020/12/24 01:08:02;;;;;;;67.77;32.90;;;1.60;99.90;;;;;;5230128;28;20216;-79
2020/12/24 01:10:34;;;;;;;61.30;31.27;;;1.60;99.90;;;;;;5232416;28;20193;-80
2020/12/24 01:13:06;;;;;;;62.87;32.07;;;1.60;99.90;;;;;;5228697;28;20666;-81
2020/12/24 01:15:37;;;;;;;66.90;31.73;;;1.60;99.90;;;;;;5210743;28;20200;-80
2020/12/24 01:18:08;;;;;;;69.27;32.03;;;1.60;99.90;;;;;;5229056;28;20198;-80
2020/12/24 01:20:40;;;;;;;62.90;30.47;;;1.50;99.90;;;;;;5229440;28;20193;-78
2020/12/24 01:23:12;;;;;;;58.87;30.27;;;1.50;99.90;;;;;;5228552;28;20204;-82
2020/12/24 01:25:43;;;;;;;63.07;28.83;;;1.50;99.90;;;;;;5228973;28;20220;-78
2020/12/24 01:28:15;;;;;;;62.23;29.73;;;1.50;99.90;;;;;;5229139;28;20549;-79
2020/12/24 01:30:46;;;;;;;60.47;29.20;;;1.60;99.90;;;;;;5228864;28;20190;-77
2020/12/24 01:33:18;;;;;;;56.97;28.53;;;1.60;99.90;;;;;;5228344;28;20197;-80
2020/12/24 01:35:49;;;;;;;57.77;29.80;;;1.50;99.90;;;;;;5228113;28;20194;-78
2020/12/24 01:38:21;;;;;;;61.97;28.30;;;1.60;99.90;;;;;;5228390;28;20582;-78
2020/12/24 01:40:57;;;;;;;60.60;30.37;;;1.60;99.90;;;;;;5229171;28;20194;-77
2020/12/24 01:43:28;;;;;;;59.70;29.73;;;1.60;99.90;;;;;;5228497;28;20200;-75
2020/12/24 01:46:00;;;;;;;59.17;28.77;;;1.70;99.90;;;;;;5228463;28;20563;-75
2020/12/24 01:48:31;;;;;;;60.73;29.83;;;1.70;99.90;;;;;;5228786;28;20185;-78
2020/12/24 01:51:02;;;;;;;58.50;28.20;;;1.70;99.90;;;;;;5228365;28;20533;-77
2020/12/24 01:53:34;;;;;;;65.10;29.90;;;1.80;99.90;;;;;;5228275;28;20552;-80
2020/12/24 01:56:05;;;;;;;65.17;29.00;;;1.80;99.90;;;;;;5228609;28;20202;-77
2020/12/24 01:58:37;;;;;;;78.83;29.47;;;1.80;99.90;;;;;;5228036;28;20644;-78
2020/12/24 02:01:08;;;;;;;64.73;27.87;;;1.80;99.90;;;;;;5211356;28;20186;-81
2020/12/24 02:03:40;;;;;;;96.37;29.27;;;1.80;99.90;;;;;;5230785;28;20213;-76
2020/12/24 02:06:12;;;;;;;66.33;27.70;;;1.80;99.90;;;;;;5230520;28;20217;-76
2020/12/24 02:09:00;;;;;;;87.77;28.47;;;1.80;99.90;;;;;;5230509;28;20201;-77
2020/12/24 02:15:18;;;;;;;94.63;26.93;;;1.70;99.90;;;;;;5224033;28;20316;-78
2020/12/24 02:17:50;;;;;;;87.93;26.83;;;1.70;99.90;;;;;;5232830;28;20194;-78
2020/12/24 02:20:22;;;;;;;90.80;27.20;;;1.80;99.90;;;;;;5231774;28;20190;-78
2020/12/24 02:22:53;;;;;;;87.43;27.20;;;1.80;99.90;;;;;;5229590;28;20190;-78
2020/12/24 02:25:24;;;;;;;64.83;26.20;;;1.80;99.90;;;;;;5235523;28;20213;-79
2020/12/24 02:31:42;;;;;;;88.10;25.27;;;1.90;99.90;;;;;;5235699;28;20177;-80
2020/12/24 02:34:13;;;;;;;78.60;24.70;;;1.90;99.90;;;;;;5238764;28;20284;-77
2020/12/24 02:36:44;;;;;;;74.83;24.90;;;1.90;99.90;;;;;;5240669;28;20239;-79
2020/12/24 02:39:16;;;;;;;109.33;25.60;;;2.00;99.90;;;;;;5237096;28;20193;-78
2020/12/24 02:41:47;;;;;;;76.47;25.30;;;2.00;99.90;;;;;;5239052;28;20202;-79
2020/12/24 02:44:19;;;;;;;133.73;24.97;;;2.00;99.90;;;;;;5219996;28;20193;-80
2020/12/24 02:46:50;;;;;;;83.33;24.87;;;2.00;99.90;;;;;;5235226;28;20221;-79
2020/12/24 02:49:21;;;;;;;87.43;24.87;;;2.10;99.90;;;;;;5235730;28;20269;-79
2020/12/24 02:51:53;;;;;;;97.03;24.60;;;2.10;99.90;;;;;;5238601;28;20198;-80
2020/12/24 02:54:24;;;;;;;119.43;25.17;;;2.10;99.90;;;;;;5239564;28;20189;-77
2020/12/24 02:56:55;;;;;;;126.93;28.30;;;2.10;99.90;;;;;;5233821;28;20293;-77
2020/12/24 02:59:28;;;;;;;140.33;26.17;;;2.10;99.90;;;;;;5231193;28;20201;-78
2020/12/24 03:01:59;;;;;;;96.93;24.27;;;2.20;99.90;;;;;;5231137;28;20259;-78
2020/12/24 03:04:31;;;;;;;96.30;23.53;;;2.20;99.90;;;;;;5231615;28;20189;-78
2020/12/24 03:07:02;;;;;;;139.47;24.83;;;2.20;99.90;;;;;;5231164;28;20578;-75
2020/12/24 03:09:33;;;;;;;87.07;22.33;;;2.20;99.90;;;;;;5230719;28;20201;-75
2020/12/24 03:12:05;;;;;;;54.37;21.33;;;2.20;99.90;;;;;;5230547;28;20197;-75
2020/12/24 03:14:37;;;;;;;69.17;21.00;;;2.30;99.90;;;;;;5230916;28;20279;-76
2020/12/24 03:17:08;;;;;;;92.27;20.97;;;2.30;99.90;;;;;;5231201;28;20190;-78
2020/12/24 03:19:40;;;;;;;50.00;20.80;;;2.30;99.90;;;;;;5230929;28;20277;-77
2020/12/24 03:22:12;;;;;;;60.30;21.20;;;2.40;99.90;;;;;;5230542;28;20201;-78
2020/12/24 03:24:44;;;;;;;58.30;21.60;;;2.40;99.90;;;;;;5230818;28;20200;-78
2020/12/24 03:27:15;;;;;;;55.17;20.17;;;2.50;99.90;;;;;;5230761;28;20201;-77
2020/12/24 03:29:46;;;;;;;59.77;21.00;;;2.50;99.90;;;;;;5231287;28;20190;-75
2020/12/24 03:32:18;;;;;;;58.83;20.40;;;2.50;99.90;;;;;;5231856;28;20200;-79
2020/12/24 03:34:49;;;;;;;54.90;20.17;;;2.50;99.90;;;;;;5230551;28;20225;-76
2020/12/24 03:37:21;;;;;;;50.40;20.00;;;2.60;99.90;;;;;;5230381;28;20198;-78
2020/12/24 03:39:52;;;;;;;54.93;20.63;;;2.60;99.90;;;;;;5230423;28;20200;-76
2020/12/24 03:42:24;;;;;;;49.50;19.07;;;2.60;99.90;;;;;;5230877;28;20193;-76
2020/12/24 03:44:56;;;;;;;51.63;19.87;;;2.60;99.90;;;;;;5229733;28;20567;-77
2020/12/24 03:47:27;;;;;;;44.97;18.37;;;2.60;99.90;;;;;;5230318;28;20205;-75
2020/12/24 03:49:58;;;;;;;41.97;16.77;;;2.70;99.90;;;;;;5230086;28;20652;-77
2020/12/24 03:52:30;;;;;;;45.03;17.00;;;2.70;99.90;;;;;;5230526;28;20201;-79
2020/12/24 03:55:01;;;;;;;42.17;16.47;;;2.70;99.90;;;;;;5231229;28;20296;-76
2020/12/24 03:57:33;;;;;;;40.53;16.07;;;2.80;99.90;;;;;;5232841;28;20198;-75
2020/12/24 04:00:04;;;;;;;37.80;16.00;;;2.80;99.90;;;;;;5232275;28;20190;-79
2020/12/24 04:02:36;;;;;;;32.03;14.63;;;2.80;99.90;;;;;;5230610;28;20247;-75
2020/12/24 04:05:07;;;;;;;36.07;15.33;;;2.80;99.90;;;;;;5230560;28;20210;-78
2020/12/24 04:07:39;;;;;;;31.33;13.27;;;2.80;99.90;;;;;;5231099;28;20644;-78
2020/12/24 04:10:11;;;;;;;33.47;14.17;;;2.80;99.90;;;;;;5230754;28;20196;-80
2020/12/24 04:12:42;;;;;;;33.00;13.40;;;2.80;99.90;;;;;;5212752;28;20198;-79
2020/12/24 04:15:14;;;;;;;31.73;14.03;;;2.80;99.90;;;;;;5230461;28;20237;-76
2020/12/24 04:17:45;;;;;;;29.67;13.23;;;2.80;99.90;;;;;;5231606;28;20700;-80
2020/12/24 04:20:16;;;;;;;26.00;12.80;;;2.90;99.90;;;;;;5232894;28;20201;-81
2020/12/24 04:22:48;;;;;;;29.70;12.23;;;2.80;99.90;;;;;;5231134;28;20190;-78
2020/12/24 04:25:19;;;;;;;26.97;12.17;;;2.80;99.90;;;;;;5230131;28;20249;-78
2020/12/24 04:27:51;;;;;;;29.10;11.93;;;2.80;99.90;;;;;;5230719;28;20198;-76
2020/12/24 04:30:22;;;;;;;27.97;11.60;;;2.80;99.90;;;;;;5230059;28;20186;-79
2020/12/24 04:32:53;;;;;;;30.50;12.43;;;2.80;99.90;;;;;;5229740;28;20202;-78
2020/12/24 04:35:25;;;;;;;28.93;12.60;;;2.80;99.90;;;;;;5229792;28;20193;-81
2020/12/24 04:37:56;;;;;;;24.63;11.83;;;2.80;99.90;;;;;;5230372;28;20201;-82
2020/12/24 04:40:27;;;;;;;27.37;10.97;;;2.80;99.90;;;;;;5231111;28;20201;-81
2020/12/24 04:42:59;;;;;;;23.07;11.17;;;2.80;99.90;;;;;;5232257;28;20196;-79
2020/12/24 04:45:32;;;;;;;22.17;10.63;;;2.80;99.90;;;;;;5229680;28;20644;-82
2020/12/24 04:48:04;;;;;;;20.83;11.50;;;2.90;99.90;;;;;;5229543;28;20520;-82
2020/12/24 04:50:39;;;;;;;21.87;9.97;;;2.90;99.90;;;;;;5229645;28;20280;-80
2020/12/24 04:53:10;;;;;;;20.67;9.87;;;2.90;99.90;;;;;;5229499;28;20217;-79
2020/12/24 04:55:42;;;;;;;21.63;9.87;;;2.90;99.90;;;;;;5211484;28;20201;-77
2020/12/24 04:58:14;;;;;;;18.77;9.73;;;2.90;99.90;;;;;;5229347;28;20193;-78
2020/12/24 05:00:47;;;;;;;19.97;9.87;;;2.90;99.90;;;;;;5229648;28;20636;-79
2020/12/24 05:03:20;;;;;;;23.07;9.97;;;2.90;99.90;;;;;;5211548;28;20186;-79
2020/12/24 05:05:52;;;;;;;27.80;10.50;;;2.90;99.90;;;;;;5229233;28;20258;-78
2020/12/24 05:08:24;;;;;;;21.47;9.87;;;2.90;99.90;;;;;;5229436;28;20196;-77
2020/12/24 05:11:03;;;;;;;25.63;10.80;;;2.90;99.90;;;;;;5228715;28;20193;-77
2020/12/24 05:13:35;;;;;;;27.70;10.93;;;2.90;99.90;;;;;;5228793;28;20193;-79
2020/12/24 05:16:14;;;;;;;27.10;10.20;;;2.90;99.90;;;;;;5228576;28;20688;-78
2020/12/24 05:18:46;;;;;;;22.50;11.50;;;2.90;99.90;;;;;;5228759;28;20201;-78
2020/12/24 05:21:32;;;;;;;26.20;11.80;;;2.90;99.90;;;;;;5229736;28;20192;-79
2020/12/24 05:24:21;;;;;;;24.67;11.60;;;2.90;99.90;;;;;;5230402;28;20193;-78
2020/12/24 05:30:38;;;;;;;60.97;14.77;;;2.90;99.90;;;;;;5231073;28;20166;-77
2020/12/24 05:33:10;;;;;;;47.27;13.57;;;2.90;99.90;;;;;;5229446;28;20232;-73
2020/12/24 05:35:41;;;;;;;52.70;14.40;;;2.90;99.90;;;;;;5211314;28;20186;-76
2020/12/24 05:38:30;;;;;;;60.63;15.40;;;2.90;99.90;;;;;;5229955;28;20198;-75
2020/12/24 05:41:01;;;;;;;51.60;14.50;;;2.90;99.90;;;;;;5228873;28;20189;-75
2020/12/24 05:47:28;;;;;;;35.33;13.57;;;2.90;99.90;;;;;;5228432;28;20267;-74
2020/12/24 05:49:59;;;;;;;67.67;16.00;;;2.90;99.90;;;;;;5228145;28;20240;-73
2020/12/24 05:52:30;;;;;;;39.17;13.70;;;2.90;99.90;;;;;;5228639;28;20194;-72
2020/12/24 05:55:02;;;;;;;113.30;17.57;;;2.90;99.90;;;;;;5228918;28;20194;-74
2020/12/24 05:57:35;;;;;;;37.63;14.40;;;2.90;99.90;;;;;;5228420;28;20548;-74
2020/12/24 06:00:07;;;;;;;36.67;13.70;;;2.90;99.90;;;;;;5228390;28;20545;-73
2020/12/24 06:02:45;;;;;;;32.83;13.73;;;2.90;99.90;;;;;;5227734;28;20197;-74
2020/12/24 06:05:29;;;;;;;34.23;14.20;;;2.90;99.90;;;;;;5227928;28;20197;-74
2020/12/24 06:08:15;;;;;;;30.83;14.40;;;2.90;99.90;;;;;;5229518;28;20199;-77
2020/12/24 06:10:59;;;;;;;49.90;14.90;;;3.00;99.90;;;;;;5215203;28;20201;-73
2020/12/24 06:13:44;;;;;;;192.13;18.83;;;3.00;99.90;;;;;;5231696;28;20204;-74
2020/12/24 06:16:16;;;;;;;49.23;15.13;;;3.00;99.90;;;;;;5232153;28;20244;-76
2020/12/24 06:18:47;;;;;;;60.77;14.47;;;2.90;99.90;;;;;;5232549;28;20194;-74
2020/12/24 06:21:20;;;;;;;31.80;13.47;;;3.00;99.90;;;;;;5232738;28;20674;-74
2020/12/24 06:24:00;;;;;;;124.07;17.23;;;3.00;99.90;;;;;;5215443;28;20193;-73
2020/12/24 06:26:43;;;;;;;31.87;13.73;;;3.00;99.90;;;;;;5232915;28;20648;-76
2020/12/24 06:29:18;;;;;;;75.97;14.33;;;3.00;99.90;;;;;;5233322;28;20192;-74
2020/12/24 06:31:53;;;;;;;121.43;15.30;;;3.00;99.90;;;;;;5232676;28;20205;-75
2020/12/24 06:34:31;;;;;;;129.77;17.97;;;3.00;99.90;;;;;;5232298;28;20279;-74
2020/12/24 06:37:12;;;;;;;25.43;11.40;;;3.00;99.90;;;;;;5231245;28;20198;-74
2020/12/24 06:39:54;;;;;;;79.60;14.43;;;3.00;99.90;;;;;;5232088;28;20189;-74
2020/12/24 06:46:21;;;;;;;81.37;14.63;;;3.00;99.90;;;;;;5231411;28;20270;-74
2020/12/24 06:49:00;;;;;;;92.87;16.30;;;3.00;99.90;;;;;;5213364;28;20670;-75
2020/12/24 06:51:51;;;;;;;45.47;13.07;;;3.00;99.90;;;;;;5231446;28;20276;-75
2020/12/24 06:54:25;;;;;;;90.77;15.87;;;3.00;99.90;;;;;;5231218;28;20559;-75
2020/12/24 07:01:30;;;;;;;57.13;13.80;;;3.00;99.90;;;;;;5231112;28;20227;-76
2020/12/24 07:04:04;;;;;;;34.87;13.57;;;3.00;99.90;;;;;;5231096;28;20228;-74
2020/12/24 07:06:42;;;;;;;30.13;12.77;;;3.10;99.90;;;;;;5229706;28;20229;-76
2020/12/24 07:09:28;;;;;;;55.00;14.37;;;3.10;99.90;;;;;;5230092;28;20189;-74
2020/12/24 07:12:00;;;;;;;43.03;13.63;;;3.10;99.90;;;;;;5212725;28;20194;-73
2020/12/24 07:18:53;;;;;;;120.00;17.17;;;3.10;99.90;;;;;;5227753;28;20221;-75
2020/12/24 07:21:25;;;;;;;88.63;16.63;;;3.10;99.90;;;;;;5230009;28;20200;-74
2020/12/24 07:24:08;;;;;;;70.53;15.47;;;3.10;99.90;;;;;;5213287;28;20280;-77
2020/12/24 07:26:53;;;;;;;33.80;13.37;;;3.10;99.90;;;;;;5230529;28;20222;-75
2020/12/24 07:33:25;;;;;;;35.27;14.63;;;3.10;99.90;;;;;;5232058;28;20650;-75
2020/12/24 07:35:57;;;;;;;42.40;16.13;;;3.10;99.90;;;;;;5215716;28;20220;-76
2020/12/24 07:38:31;;;;;;;100.43;17.83;;;3.10;99.90;;;;;;5234659;28;20638;-77
2020/12/24 07:41:16;;;;;;;59.30;18.10;;;3.10;99.90;;;;;;5231356;28;20217;-77
2020/12/24 07:43:48;;;;;;;86.87;20.07;;;3.10;99.90;;;;;;5232084;28;20200;-76
2020/12/24 07:46:25;;;;;;;84.67;19.00;;;3.10;99.90;;;;;;5232173;28;20781;-76
2020/12/24 07:49:05;;;;;;;38.67;15.77;;;3.10;99.90;;;;;;5213778;28;20193;-77
2020/12/24 07:51:39;;;;;;;40.97;16.43;;;3.10;99.90;;;;;;5230196;28;20192;-75
2020/12/24 07:54:15;;;;;;;51.13;18.27;;;3.10;99.90;;;;;;5230330;28;20197;-77
2020/12/24 07:56:49;;;;;;;38.13;15.43;;;3.10;99.90;;;;;;5229772;28;20551;-76
2020/12/24 07:59:22;;;;;;;77.90;17.87;;;3.10;99.90;;;;;;5229795;28;20281;-74
2020/12/24 08:02:06;;;;;;;72.37;17.70;;;3.20;99.90;;;;;;5229830;28;20225;-78
2020/12/24 08:04:38;;;;;;;54.10;16.60;;;3.20;99.90;;;;;;5229708;28;20192;-78
2020/12/24 08:07:10;;;;;;;37.00;14.60;;;3.20;99.90;;;;;;5229511;28;20221;-74
2020/12/24 08:09:48;;;;;;;42.47;14.70;;;3.20;99.90;;;;;;5229776;28;20193;-72
2020/12/24 08:12:25;;;;;;;41.23;14.67;;;3.20;99.90;;;;;;5229578;28;20228;-74
2020/12/24 08:14:57;;;;;;;42.43;15.53;;;3.20;99.90;;;;;;5229249;28;20198;-73
2020/12/24 08:17:40;;;;;;;50.43;17.03;;;3.20;99.90;;;;;;5229035;28;20328;-72
2020/12/24 08:20:18;;;;;;;40.07;14.67;;;3.30;99.90;;;;;;5212416;28;20197;-73
2020/12/24 08:23:28;;;;;;;44.90;17.07;;;3.30;99.90;;;;;;5229466;28;20360;-72
2020/12/24 08:26:00;;;;;;;40.67;15.37;;;3.30;99.90;;;;;;5179628;28;20226;-72
2020/12/24 08:29:13;;;;;;;38.47;15.50;;;3.30;99.90;;;;;;5229109;28;20208;-75
2020/12/24 08:31:46;;;;;;;40.63;14.90;;;3.30;99.90;;;;;;5210879;28;20207;-73
2020/12/24 08:34:22;;;;;;;56.87;17.60;;;3.40;99.90;;;;;;5228746;28;20196;-75
2020/12/24 08:36:53;;;;;;;111.37;19.27;;;3.40;99.90;;;;;;5228790;28;20229;-75
2020/12/24 08:39:34;;;;;;;83.13;19.27;;;3.40;99.90;;;;;;5228952;28;20190;-75
2020/12/24 08:42:17;;;;;;;45.60;16.60;;;3.40;99.90;;;;;;5212285;28;20193;-71
2020/12/24 08:44:57;;;;;;;57.27;17.93;;;3.40;99.90;;;;;;5228235;28;20562;-72
2020/12/24 08:47:38;;;;;;;54.07;15.93;;;3.40;99.90;;;;;;5228815;28;20221;-75
2020/12/24 08:50:10;;;;;;;60.93;15.80;;;3.40;99.90;;;;;;5228563;28;20185;-71
2020/12/24 08:52:45;;;;;;;41.13;14.80;;;3.40;99.90;;;;;;5228750;28;20197;-72
2020/12/24 08:55:16;;;;;;;40.97;14.67;;;3.50;99.90;;;;;;5228351;28;20193;-73
2020/12/24 09:01:44;;;;;;;36.07;14.67;;;3.50;99.90;;;;;;5228469;28;20227;-74
2020/12/24 09:04:19;;;;;;;81.47;17.20;;;3.50;99.90;;;;;;5228424;28;20314;-73
2020/12/24 09:06:52;;;;;;;44.53;15.43;;;3.50;99.90;;;;;;5228318;28;20242;-73
2020/12/24 09:09:25;;;;;;;39.50;13.93;;;3.50;99.90;;;;;;5228007;28;20229;-72
2020/12/24 09:12:13;;;;;;;36.13;13.90;;;3.50;99.90;;;;;;5228423;28;20198;-73
2020/12/24 09:18:34;;;;;;;54.50;15.77;;;3.60;99.90;;;;;;5228105;28;20217;-73
2020/12/24 09:21:10;;;;;;;37.10;14.33;;;3.60;99.90;;;;;;5228123;28;20559;-72
2020/12/24 09:23:42;;;;;;;37.43;13.23;;;3.60;99.90;;;;;;5228242;28;20559;-72
2020/12/24 09:26:14;;;;;;;40.10;12.90;;;3.60;99.90;;;;;;5228475;28;20240;-76
2020/12/24 09:32:51;;;;;;;37.33;12.97;;;3.60;99.90;;;;;;5228138;28;20180;-76
2020/12/24 09:35:23;;;;;;;47.77;14.30;;;3.60;99.90;;;;;;5227863;28;20204;-76
2020/12/24 09:37:55;;;;;;;44.43;15.93;;;3.60;99.90;;;;;;5227703;28;20190;-74
2020/12/24 09:40:33;;;;;;;48.20;18.03;;;3.60;99.90;;;;;;5227704;28;20199;-73
2020/12/24 09:43:06;;;;;;;48.20;17.47;;;3.60;99.90;;;;;;5227316;28;20549;-73
2020/12/24 09:45:39;;;;;;;46.93;17.40;;;3.60;99.90;;;;;;5227717;28;20579;-73
2020/12/24 09:48:11;;;;;;;43.50;13.87;;;3.60;99.90;;;;;;5227669;28;20194;-73
2020/12/24 09:50:42;;;;;;;40.50;16.00;;;3.60;99.90;;;;;;5227535;28;20186;-73
2020/12/24 09:53:17;;;;;;;35.73;13.17;;;3.60;99.90;;;;;;5227410;28;20197;-73
2020/12/24 09:55:52;;;;;;;35.70;12.93;;;3.60;99.90;;;;;;5227470;28;20645;-72
2020/12/24 09:58:23;;;;;;;37.23;13.17;;;3.70;99.90;;;;;;5227193;28;20636;-70
2020/12/24 10:00:56;;;;;;;50.63;19.50;;;3.60;99.90;;;;;;5227462;28;20198;-72
2020/12/24 10:03:35;;;;;;;41.40;17.70;;;3.70;99.90;;;;;;5227996;28;20280;-71
2020/12/24 10:06:07;;;;;;;37.90;16.27;;;3.70;99.90;;;;;;5210100;28;20251;-68
2020/12/24 10:08:39;;;;;;;36.07;16.60;;;3.70;99.90;;;;;;5193190;28;20667;-70
2020/12/24 10:11:12;;;;;;;37.50;17.53;;;3.70;99.90;;;;;;5208908;28;20198;-70
2020/12/24 10:13:54;;;;;;;40.73;19.87;;;3.70;99.90;;;;;;5145568;28;20185;-68
2020/12/24 10:16:38;;;;;;;35.03;19.93;;;3.70;99.90;;;;;;5123107;28;20488;-69
2020/12/24 10:19:29;;;;;;;35.70;19.20;;;3.70;99.90;;;;;;5097665;28;20263;-64
2020/12/24 10:22:18;;;;;;;38.10;20.17;;;3.70;99.90;;;;;;5192030;28;20652;-69
2020/12/24 10:24:56;;;;;;;34.13;15.90;;;3.80;99.90;;;;;;5227714;28;20650;-73
2020/12/24 10:27:27;;;;;;;34.70;15.63;;;3.80;99.90;;;;;;5223550;28;20221;-71
2020/12/24 10:29:59;;;;;;;25.10;13.70;;;3.90;99.90;;;;;;5209328;28;20189;-71
2020/12/24 10:32:31;;;;;;;32.13;15.63;;;3.90;99.90;;;;;;5227094;28;20197;-69
2020/12/24 10:35:05;;;;;;;32.50;16.33;;;4.00;99.90;;;;;;5226962;28;20209;-70
2020/12/24 10:37:39;;;;;;;43.27;20.07;;;4.00;99.90;;;;;;5226923;28;20589;-71
2020/12/24 10:40:13;;;;;;;36.33;16.93;;;4.10;99.90;;;;;;5227316;28;20215;-71
2020/12/24 10:42:48;;;;;;;31.20;14.00;;;4.10;99.90;;;;;;5226857;28;20281;-70
2020/12/24 10:45:20;;;;;;;25.40;13.67;;;4.10;99.90;;;;;;5227033;28;20208;-75
2020/12/24 10:47:54;;;;;;;31.97;14.50;;;4.10;99.90;;;;;;5227009;28;20217;-75
2020/12/24 10:50:26;;;;;;;27.20;14.80;;;4.10;99.90;;;;;;5227289;28;20276;-73
2020/12/24 10:52:58;;;;;;;29.27;14.17;;;4.10;99.90;;;;;;5226978;28;20198;-72
2020/12/24 10:55:30;;;;;;;28.80;14.40;;;4.20;99.90;;;;;;5230601;28;20220;-67
2020/12/24 10:58:05;;;;;;;24.97;13.07;;;4.10;99.90;;;;;;5230682;28;20219;-66
2020/12/24 11:00:40;;;;;;;30.67;14.60;;;4.20;99.90;;;;;;5230474;28;20251;-68
2020/12/24 11:03:17;;;;;;;34.00;16.43;;;4.10;99.90;;;;;;5233553;28;20190;-68
2020/12/24 11:05:49;;;;;;;32.27;17.13;;;4.10;99.90;;;;;;5230173;28;20213;-68
2020/12/24 11:08:23;;;;;;;34.87;17.40;;;4.10;99.90;;;;;;5229854;28;20637;-67
2020/12/24 11:10:57;;;;;;;36.37;17.47;;;4.00;99.90;;;;;;5212813;28;20193;-68
2020/12/24 11:17:26;;;;;;;39.50;19.17;;;3.90;99.90;;;;;;5231644;28;20745;-71
2020/12/24 11:20:00;;;;;;;36.70;21.00;;;3.80;99.90;;;;;;5230437;28;20284;-67
2020/12/24 11:22:35;;;;;;;37.30;20.97;;;3.80;99.90;;;;;;5230620;28;20220;-68
2020/12/24 11:25:12;;;;;;;37.30;19.03;;;3.80;99.90;;;;;;5229677;28;20189;-70
2020/12/24 11:27:43;;;;;;;33.07;17.73;;;3.80;99.90;;;;;;5230068;28;20221;-69
2020/12/24 11:34:11;;;;;;;38.73;19.97;;;3.90;99.90;;;;;;5232645;28;20234;-69
2020/12/24 11:36:44;;;;;;;41.27;22.93;;;3.90;99.90;;;;;;5214759;28;20536;-71
2020/12/24 11:39:19;;;;;;;40.07;22.93;;;3.90;99.90;;;;;;5228276;28;20198;-68
2020/12/24 11:41:58;;;;;;;45.77;22.27;;;3.90;99.90;;;;;;5210145;28;20242;-68
2020/12/24 11:44:32;;;;;;;37.00;19.70;;;3.90;99.90;;;;;;5228502;28;20542;-71
2020/12/24 11:47:03;;;;;;;35.53;18.80;;;3.90;99.90;;;;;;5228138;28;20587;-73
2020/12/24 11:49:37;;;;;;;41.70;20.27;;;4.00;99.90;;;;;;5231042;28;20190;-72
2020/12/24 11:52:09;;;;;;;39.57;20.27;;;4.00;99.90;;;;;;5231211;28;20193;-75
2020/12/24 11:54:45;;;;;;;35.40;18.53;;;4.00;99.90;;;;;;5230068;28;20632;-72
2020/12/24 11:57:17;;;;;;;35.23;18.20;;;4.00;99.90;;;;;;5229741;28;20228;-71
2020/12/24 11:59:51;;;;;;;34.90;17.83;;;4.00;99.90;;;;;;5229236;28;20261;-72
2020/12/24 12:02:28;;;;;;;33.83;18.43;;;4.10;99.90;;;;;;5227414;28;20232;-73
2020/12/24 12:05:00;;;;;;;29.57;15.90;;;4.00;99.90;;;;;;5229234;28;20640;-72
2020/12/24 12:07:32;;;;;;;30.50;16.47;;;4.10;99.90;;;;;;5229241;28;20548;-77
2020/12/24 12:10:04;;;;;;;34.27;16.10;;;4.10;99.90;;;;;;5229673;28;20189;-68
2020/12/24 12:12:40;;;;;;;29.60;14.90;;;4.10;99.90;;;;;;5229414;28;20198;-71
2020/12/24 12:15:12;;;;;;;30.37;15.30;;;4.10;99.90;;;;;;5229170;28;20189;-71
2020/12/24 12:17:46;;;;;;;31.23;15.17;;;4.10;99.90;;;;;;5229164;28;20256;-68
2020/12/24 12:20:25;;;;;;;31.43;16.00;;;4.10;99.90;;;;;;5229208;28;20193;-68
2020/12/24 12:22:56;;;;;;;31.03;17.20;;;4.10;99.90;;;;;;5211923;28;20627;-70
2020/12/24 12:25:30;;;;;;;35.80;17.67;;;4.10;99.90;;;;;;5229418;28;20272;-72
2020/12/24 12:28:04;;;;;;;31.57;17.50;;;4.10;99.90;;;;;;5228304;28;20311;-71
2020/12/24 12:30:39;;;;;;;37.70;19.50;;;4.10;99.90;;;;;;5229072;28;20575;-71
2020/12/24 12:33:14;;;;;;;43.60;19.87;;;4.10;99.90;;;;;;5229856;28;20197;-71
2020/12/24 12:35:46;;;;;;;41.47;21.17;;;4.10;99.90;;;;;;5228997;28;20193;-74
2020/12/24 12:38:18;;;;;;;37.70;20.37;;;4.10;99.90;;;;;;5228811;28;20288;-70
2020/12/24 12:40:50;;;;;;;36.20;19.73;;;4.10;99.90;;;;;;5229343;28;20560;-71
2020/12/24 12:43:21;;;;;;;38.23;20.17;;;4.10;99.90;;;;;;5229138;28;20553;-67
2020/12/24 12:46:01;;;;;;;33.00;18.37;;;4.10;99.90;;;;;;5229051;28;20214;-69
2020/12/24 12:48:36;;;;;;;36.37;19.83;;;4.10;99.90;;;;;;5228468;28;20210;-71
2020/12/24 12:51:09;;;;;;;39.03;19.23;;;4.10;99.90;;;;;;5230688;28;20185;-71
2020/12/24 12:53:41;;;;;;;37.23;19.77;;;4.10;99.90;;;;;;5228212;28;20279;-71
2020/12/24 12:56:36;;;;;;;40.27;20.93;;;4.10;99.90;;;;;;5228255;28;20644;-70
2020/12/24 13:03:06;;;;;;;36.30;19.60;;;4.10;99.90;;;;;;5228578;28;20199;-71
2020/12/24 13:05:39;;;;;;;34.80;19.13;;;4.20;99.90;;;;;;5228575;28;20228;-69
2020/12/24 13:08:15;;;;;;;33.50;17.97;;;4.20;99.90;;;;;;5229305;28;20285;-69
2020/12/24 13:10:49;;;;;;;33.80;18.47;;;4.20;99.90;;;;;;5228169;28;20193;-68
2020/12/24 13:13:21;;;;;;;33.33;17.50;;;4.20;99.90;;;;;;5228217;28;20201;-69
2020/12/24 13:19:49;;;;;;;38.53;18.50;;;4.20;99.90;;;;;;5223240;28;20259;-70
2020/12/24 13:22:21;;;;;;;31.97;16.97;;;4.30;99.90;;;;;;5228355;28;20608;-69
2020/12/24 13:24:53;;;;;;;32.93;17.47;;;4.30;99.90;;;;;;5228258;28;20189;-71
2020/12/24 13:27:24;;;;;;;29.13;15.83;;;4.30;99.90;;;;;;5227944;28;20213;-70
2020/12/24 13:33:44;;;;;;;30.97;15.63;;;4.30;99.90;;;;;;5228085;28;20260;-72
2020/12/24 13:36:19;;;;;;;33.40;18.03;;;4.30;99.90;;;;;;5228474;28;20194;-70
2020/12/24 13:38:53;;;;;;;33.27;18.87;;;4.30;99.90;;;;;;5228902;28;20272;-70
2020/12/24 13:41:27;;;;;;;30.47;17.20;;;4.30;99.90;;;;;;5228481;28;20578;-71
2020/12/24 13:43:59;;;;;;;29.63;15.53;;;4.20;99.90;;;;;;5227694;28;20189;-72
2020/12/24 13:50:16;;;;;;;13.97;8.53;;;4.20;99.90;;;;;;5227918;28;20265;-70
2020/12/24 13:52:50;;;;;;;10.50;6.43;;;4.20;99.90;;;;;;5227589;28;20655;-70
2020/12/24 13:55:22;;;;;;;17.23;9.47;;;4.10;99.90;;;;;;5228029;28;20194;-70
2020/12/24 13:57:57;;;;;;;11.80;7.03;;;4.10;99.90;;;;;;5227722;28;20232;-71
2020/12/24 14:00:29;;;;;;;10.83;5.97;;;4.10;99.90;;;;;;5226900;28;20700;-70
2020/12/24 14:03:03;;;;;;;7.13;4.30;;;4.10;99.90;;;;;;5227612;28;20197;-70
2020/12/24 14:05:35;;;;;;;9.43;5.03;;;4.10;99.90;;;;;;5227788;28;20189;-71
2020/12/24 14:08:12;;;;;;;9.27;4.20;;;4.10;99.90;;;;;;5209680;28;20304;-70
2020/12/24 14:10:46;;;;;;;4.33;2.80;;;4.10;99.90;;;;;;5227148;28;20211;-70
2020/12/24 14:13:18;;;;;;;4.63;3.07;;;4.00;99.90;;;;;;5227417;28;20225;-71
2020/12/24 14:15:50;;;;;;;5.00;2.67;;;4.00;99.90;;;;;;5227086;28;20223;-71
2020/12/24 14:18:24;;;;;;;3.33;2.03;;;4.00;99.90;;;;;;5227088;28;20241;-69
2020/12/24 14:20:55;;;;;;;3.00;2.00;;;3.90;99.90;;;;;;5227265;28;20780;-70